Nulato, Alaska
Current Conditions -  °F | °C
As of 6:53 AM on Thursday 27 Nov 2014 (Local Time) from PAKV Reporting Station
Few Clouds Few Clouds  
Wind Chill: -21°   Ceiling: Unl
Heat Index: -13°   Visibility: 10mi
Dew Point: -17°   Wind: 10mph
Humidity: 70%   Direction: 60°ENE
Pressure: 30.34"   Gusts: NA
Location:  64.72°N, 158.13°W
Report Text: PAKV 271553Z AUTO 06009KT 10SM FEW065 M13/M17 A3034 RMK AO1 SLP279 T11281172 FZRANO TSNO
Loading
Personal Weather Stations






























Interactive Weather Map New forecast layout! Learn more

10-Day Weather Forecast

Advertisements
Track Severe Weather on mobile